createdAt,value
2014-08-06T00:04:51.238Z,101811
2014-08-06T00:11:51.768Z,101814
2014-08-06T00:19:52.377Z,101828
2014-08-06T00:28:53.034Z,101830
2014-08-06T00:37:53.693Z,101811
2014-08-06T00:45:54.302Z,101814
2014-08-06T00:54:54.961Z,101819
2014-08-06T01:04:55.667Z,101819
2014-08-06T01:12:56.277Z,101813
2014-08-06T01:19:56.821Z,101813
2014-08-06T01:28:57.688Z,101810
2014-08-06T01:36:58.374Z,101810
2014-08-06T01:43:58.956Z,101807
2014-08-06T01:51:14.396Z,101810
2014-08-06T01:59:15.007Z,101813
2014-08-06T02:07:15.615Z,101804
2014-08-06T02:17:16.321Z,101804
2014-08-06T02:25:16.931Z,101816
2014-08-06T02:32:17.477Z,101804
2014-08-06T02:39:18.037Z,101810
2014-08-06T02:45:18.532Z,101807
2014-08-06T02:52:19.077Z,101798
2014-08-06T06:58:00.752Z,101788
2014-08-06T07:05:01.296Z,101779
2014-08-06T07:14:01.955Z,101767
2014-08-06T07:22:02.548Z,101766
2014-08-06T07:29:03.093Z,101763
2014-08-06T20:08:12.528Z,101404
2014-08-06T20:16:13.152Z,101401
2014-08-06T20:22:13.647Z,101389
2014-08-06T20:30:14.273Z,101393
2014-08-06T20:37:14.818Z,101398
2014-08-06T20:44:15.377Z,101392
2014-08-06T20:53:16.037Z,101390
2014-08-06T21:01:16.644Z,101387
2014-08-06T21:09:17.253Z,101390
2014-08-06T21:17:17.862Z,101375
2014-08-06T21:25:18.473Z,101378
2014-08-06T21:32:19.033Z,101378
2014-08-06T21:41:19.690Z,101381
